sensor_id;sensor_type;location;lat;lon;timestamp;P1;durP1;ratioP1;P2;durP2;ratioP2
62256;SDS011;48240;52.962;5.790;2023-12-20T04:47:36;11.18;;;1.98;;
62256;SDS011;48240;52.962;5.790;2023-12-20T04:50:03;12.63;;;2.20;;
62256;SDS011;48240;52.962;5.790;2023-12-20T04:52:29;6.50;;;1.73;;
62256;SDS011;48240;52.962;5.790;2023-12-20T04:54:55;11.77;;;2.30;;
62256;SDS011;48240;52.962;5.790;2023-12-20T04:57:21;9.13;;;1.98;;
62256;SDS011;48240;52.962;5.790;2023-12-20T04:59:47;12.95;;;2.90;;
62256;SDS011;48240;52.962;5.790;2023-12-20T05:02:14;10.55;;;1.80;;
62256;SDS011;48240;52.962;5.790;2023-12-20T05:04:40;11.45;;;2.38;;
62256;SDS011;48240;52.962;5.790;2023-12-20T05:07:06;13.15;;;2.47;;
62256;SDS011;48240;52.962;5.790;2023-12-20T05:09:32;11.57;;;2.42;;
62256;SDS011;48240;52.962;5.790;2023-12-20T05:11:58;8.02;;;2.20;;
62256;SDS011;48240;52.962;5.790;2023-12-20T05:14:25;7.45;;;1.83;;
62256;SDS011;48240;52.962;5.790;2023-12-20T05:16:51;13.40;;;2.10;;
62256;SDS011;48240;52.962;5.790;2023-12-20T05:19:17;9.27;;;2.22;;
62256;SDS011;48240;52.962;5.790;2023-12-20T05:21:43;12.30;;;2.08;;
62256;SDS011;48240;52.962;5.790;2023-12-20T05:24:09;12.15;;;2.20;;
62256;SDS011;48240;52.962;5.790;2023-12-20T05:26:35;7.35;;;1.52;;
62256;SDS011;48240;52.962;5.790;2023-12-20T05:29:01;12.13;;;2.50;;
62256;SDS011;48240;52.962;5.790;2023-12-20T05:31:27;7.10;;;1.60;;
62256;SDS011;48240;52.962;5.790;2023-12-20T05:33:53;7.70;;;1.70;;
62256;SDS011;48240;52.962;5.790;2023-12-20T05:36:19;9.98;;;1.98;;
62256;SDS011;48240;52.962;5.790;2023-12-20T05:38:45;11.25;;;2.55;;
62256;SDS011;48240;52.962;5.790;2023-12-20T05:41:12;8.85;;;1.70;;
62256;SDS011;48240;52.962;5.790;2023-12-20T05:43:38;11.65;;;2.05;;
62256;SDS011;48240;52.962;5.790;2023-12-20T05:46:04;7.40;;;2.45;;
62256;SDS011;48240;52.962;5.790;2023-12-20T05:48:30;10.52;;;2.08;;
62256;SDS011;48240;52.962;5.790;2023-12-20T05:50:57;9.98;;;2.53;;
62256;SDS011;48240;52.962;5.790;2023-12-20T05:53:23;12.75;;;2.58;;
62256;SDS011;48240;52.962;5.790;2023-12-20T05:55:49;8.35;;;1.98;;
62256;SDS011;48240;52.962;5.790;2023-12-20T05:58:15;10.23;;;1.90;;
62256;SDS011;48240;52.962;5.790;2023-12-20T06:00:41;9.75;;;2.00;;
62256;SDS011;48240;52.962;5.790;2023-12-20T06:03:07;10.50;;;2.15;;
62256;SDS011;48240;52.962;5.790;2023-12-20T06:05:33;10.38;;;2.10;;
62256;SDS011;48240;52.962;5.790;2023-12-20T06:07:59;9.02;;;2.47;;
62256;SDS011;48240;52.962;5.790;2023-12-20T06:10:28;11.65;;;2.38;;
62256;SDS011;48240;52.962;5.790;2023-12-20T06:12:54;11.63;;;2.10;;
62256;SDS011;48240;52.962;5.790;2023-12-20T06:15:21;10.18;;;2.10;;
62256;SDS011;48240;52.962;5.790;2023-12-20T06:17:48;10.02;;;2.00;;
62256;SDS011;48240;52.962;5.790;2023-12-20T06:20:14;8.85;;;1.90;;
62256;SDS011;48240;52.962;5.790;2023-12-20T06:22:40;9.25;;;2.03;;
62256;SDS011;48240;52.962;5.790;2023-12-20T06:25:07;11.07;;;2.40;;
62256;SDS011;48240;52.962;5.790;2023-12-20T06:27:33;12.68;;;2.90;;
62256;SDS011;48240;52.962;5.790;2023-12-20T06:29:59;9.52;;;1.90;;
62256;SDS011;48240;52.962;5.790;2023-12-20T06:32:25;8.30;;;2.22;;
62256;SDS011;48240;52.962;5.790;2023-12-20T06:34:51;15.40;;;2.08;;
62256;SDS011;48240;52.962;5.790;2023-12-20T06:37:17;12.25;;;2.20;;
62256;SDS011;48240;52.962;5.790;2023-12-20T06:39:43;15.48;;;2.83;;
62256;SDS011;48240;52.962;5.790;2023-12-20T06:42:10;8.65;;;1.90;;
62256;SDS011;48240;52.962;5.790;2023-12-20T06:44:36;9.65;;;2.22;;
62256;SDS011;48240;52.962;5.790;2023-12-20T06:47:02;9.90;;;2.13;;
62256;SDS011;48240;52.962;5.790;2023-12-20T06:49:28;9.45;;;1.70;;
62256;SDS011;48240;52.962;5.790;2023-12-20T06:51:54;9.95;;;2.10;;
62256;SDS011;48240;52.962;5.790;2023-12-20T06:54:20;12.70;;;2.53;;
62256;SDS011;48240;52.962;5.790;2023-12-20T06:56:46;13.80;;;2.28;;
62256;SDS011;48240;52.962;5.790;2023-12-20T06:59:12;9.52;;;2.08;;
62256;SDS011;48240;52.962;5.790;2023-12-20T07:01:38;9.32;;;2.47;;
62256;SDS011;48240;52.962;5.790;2023-12-20T07:04:06;9.90;;;2.05;;
62256;SDS011;48240;52.962;5.790;2023-12-20T07:06:32;9.73;;;2.13;;
62256;SDS011;48240;52.962;5.790;2023-12-20T07:08:58;10.52;;;2.42;;
62256;SDS011;48240;52.962;5.790;2023-12-20T07:11:24;11.20;;;2.58;;
62256;SDS011;48240;52.962;5.790;2023-12-20T07:13:51;11.15;;;2.20;;
62256;SDS011;48240;52.962;5.790;2023-12-20T07:16:17;11.38;;;2.40;;
62256;SDS011;48240;52.962;5.790;2023-12-20T07:18:43;10.02;;;2.50;;
62256;SDS011;48240;52.962;5.790;2023-12-20T07:21:09;9.40;;;2.20;;
62256;SDS011;48240;52.962;5.790;2023-12-20T07:23:35;12.50;;;2.35;;
62256;SDS011;48240;52.962;5.790;2023-12-20T07:26:01;11.95;;;2.55;;
62256;SDS011;48240;52.962;5.790;2023-12-20T07:28:29;11.52;;;2.30;;
62256;SDS011;48240;52.962;5.790;2023-12-20T07:30:55;10.20;;;2.38;;
62256;SDS011;48240;52.962;5.790;2023-12-20T07:33:21;12.02;;;2.60;;
62256;SDS011;48240;52.962;5.790;2023-12-20T07:35:47;10.60;;;2.13;;
62256;SDS011;48240;52.962;5.790;2023-12-20T07:38:13;8.15;;;2.05;;
62256;SDS011;48240;52.962;5.790;2023-12-20T07:40:39;12.57;;;2.13;;
62256;SDS011;48240;52.962;5.790;2023-12-20T07:43:05;11.48;;;2.70;;
62256;SDS011;48240;52.962;5.790;2023-12-20T07:45:31;10.73;;;2.63;;
62256;SDS011;48240;52.962;5.790;2023-12-20T07:47:57;9.75;;;2.40;;
62256;SDS011;48240;52.962;5.790;2023-12-20T07:50:23;13.18;;;2.53;;
62256;SDS011;48240;52.962;5.790;2023-12-20T07:52:49;10.25;;;2.00;;
62256;SDS011;48240;52.962;5.790;2023-12-20T07:55:16;13.07;;;2.40;;
62256;SDS011;48240;52.962;5.790;2023-12-20T07:57:42;12.63;;;2.33;;
62256;SDS011;48240;52.962;5.790;2023-12-20T08:00:08;12.90;;;2.60;;
62256;SDS011;48240;52.962;5.790;2023-12-20T08:02:34;11.18;;;2.90;;
62256;SDS011;48240;52.962;5.790;2023-12-20T08:05:00;15.90;;;2.78;;
62256;SDS011;48240;52.962;5.790;2023-12-20T08:07:26;11.30;;;2.60;;
62256;SDS011;48240;52.962;5.790;2023-12-20T08:09:52;11.45;;;2.42;;
62256;SDS011;48240;52.962;5.790;2023-12-20T08:12:20;11.45;;;1.95;;
62256;SDS011;48240;52.962;5.790;2023-12-20T08:14:46;14.20;;;2.60;;
62256;SDS011;48240;52.962;5.790;2023-12-20T08:17:12;9.38;;;2.28;;
62256;SDS011;48240;52.962;5.790;2023-12-20T08:19:41;17.02;;;2.72;;
62256;SDS011;48240;52.962;5.790;2023-12-20T08:22:07;10.90;;;2.00;;
62256;SDS011;48240;52.962;5.790;2023-12-20T08:24:33;9.40;;;2.00;;
62256;SDS011;48240;52.962;5.790;2023-12-20T08:26:59;14.38;;;2.47;;
62256;SDS011;48240;52.962;5.790;2023-12-20T08:29:25;12.32;;;2.40;;
62256;SDS011;48240;52.962;5.790;2023-12-20T08:31:54;10.60;;;2.28;;
62256;SDS011;48240;52.962;5.790;2023-12-20T08:34:21;13.35;;;1.92;;
62256;SDS011;48240;52.962;5.790;2023-12-20T08:36:47;14.68;;;2.35;;
62256;SDS011;48240;52.962;5.790;2023-12-20T08:39:13;11.85;;;2.58;;
62256;SDS011;48240;52.962;5.790;2023-12-20T08:41:39;7.13;;;1.80;;
62256;SDS011;48240;52.962;5.790;2023-12-20T08:44:05;12.55;;;2.42;;
62256;SDS011;48240;52.962;5.790;2023-12-20T08:46:31;10.73;;;2.13;;
62256;SDS011;48240;52.962;5.790;2023-12-20T08:48:57;11.38;;;2.10;;
62256;SDS011;48240;52.962;5.790;2023-12-20T08:51:23;11.25;;;2.38;;
62256;SDS011;48240;52.962;5.790;2023-12-20T08:53:50;9.75;;;2.00;;
62256;SDS011;48240;52.962;5.790;2023-12-20T08:56:17;13.15;;;2.50;;
62256;SDS011;48240;52.962;5.790;2023-12-20T08:58:43;16.33;;;2.28;;
62256;SDS011;48240;52.962;5.790;2023-12-20T09:01:09;10.75;;;2.45;;
62256;SDS011;48240;52.962;5.790;2023-12-20T09:03:35;10.38;;;2.00;;
62256;SDS011;48240;52.962;5.790;2023-12-20T09:06:01;12.20;;;2.55;;
62256;SDS011;48240;52.962;5.790;2023-12-20T09:08:27;10.27;;;2.53;;
62256;SDS011;48240;52.962;5.790;2023-12-20T09:10:54;8.25;;;1.73;;
62256;SDS011;48240;52.962;5.790;2023-12-20T09:13:20;8.68;;;1.88;;
62256;SDS011;48240;52.962;5.790;2023-12-20T09:15:47;11.60;;;2.30;;
62256;SDS011;48240;52.962;5.790;2023-12-20T09:18:13;10.57;;;2.10;;
62256;SDS011;48240;52.962;5.790;2023-12-20T09:20:39;8.38;;;1.70;;
62256;SDS011;48240;52.962;5.790;2023-12-20T09:23:05;10.27;;;1.98;;
62256;SDS011;48240;52.962;5.790;2023-12-20T09:25:31;7.45;;;2.33;;
62256;SDS011;48240;52.962;5.790;2023-12-20T09:27:57;12.48;;;2.10;;
62256;SDS011;48240;52.962;5.790;2023-12-20T09:30:23;9.80;;;2.17;;
62256;SDS011;48240;52.962;5.790;2023-12-20T09:32:50;10.80;;;2.00;;
62256;SDS011;48240;52.962;5.790;2023-12-20T09:35:16;8.50;;;1.67;;
62256;SDS011;48240;52.962;5.790;2023-12-20T09:37:42;8.15;;;2.05;;
62256;SDS011;48240;52.962;5.790;2023-12-20T09:40:10;8.50;;;1.50;;
62256;SDS011;48240;52.962;5.790;2023-12-20T09:42:48;10.57;;;1.77;;
62256;SDS011;48240;52.962;5.790;2023-12-20T09:45:16;7.13;;;1.65;;
62256;SDS011;48240;52.962;5.790;2023-12-20T09:47:46;5.88;;;1.63;;
62256;SDS011;48240;52.962;5.790;2023-12-20T09:50:12;8.02;;;1.55;;
62256;SDS011;48240;52.962;5.790;2023-12-20T09:52:39;7.28;;;1.70;;
62256;SDS011;48240;52.962;5.790;2023-12-20T09:55:05;7.90;;;1.50;;
62256;SDS011;48240;52.962;5.790;2023-12-20T09:57:32;10.98;;;1.83;;
62256;SDS011;48240;52.962;5.790;2023-12-20T09:59:59;11.63;;;2.00;;
62256;SDS011;48240;52.962;5.790;2023-12-20T10:02:25;10.50;;;1.90;;
62256;SDS011;48240;52.962;5.790;2023-12-20T10:04:52;7.25;;;1.60;;
62256;SDS011;48240;52.962;5.790;2023-12-20T10:07:18;8.07;;;1.55;;
62256;SDS011;48240;52.962;5.790;2023-12-20T10:09:44;9.60;;;1.65;;
62256;SDS011;48240;52.962;5.790;2023-12-20T10:12:11;6.68;;;1.75;;
62256;SDS011;48240;52.962;5.790;2023-12-20T10:14:38;8.65;;;1.70;;
62256;SDS011;48240;52.962;5.790;2023-12-20T10:17:05;8.98;;;2.05;;
62256;SDS011;48240;52.962;5.790;2023-12-20T10:19:31;11.82;;;1.70;;
62256;SDS011;48240;52.962;5.790;2023-12-20T10:22:01;9.30;;;1.67;;
62256;SDS011;48240;52.962;5.790;2023-12-20T10:24:29;7.32;;;1.63;;
62256;SDS011;48240;52.962;5.790;2023-12-20T10:27:02;8.48;;;1.45;;
62256;SDS011;48240;52.962;5.790;2023-12-20T10:29:32;7.50;;;1.33;;
62256;SDS011;48240;52.962;5.790;2023-12-20T10:31:59;6.50;;;1.58;;
62256;SDS011;48240;52.962;5.790;2023-12-20T10:34:25;6.30;;;1.38;;
62256;SDS011;48240;52.962;5.790;2023-12-20T10:36:51;6.45;;;1.45;;
62256;SDS011;48240;52.962;5.790;2023-12-20T10:39:18;6.93;;;1.30;;
62256;SDS011;48240;52.962;5.790;2023-12-20T10:41:45;8.38;;;1.55;;
62256;SDS011;48240;52.962;5.790;2023-12-20T10:44:11;6.85;;;1.75;;
62256;SDS011;48240;52.962;5.790;2023-12-20T10:46:38;5.90;;;1.23;;
62256;SDS011;48240;52.962;5.790;2023-12-20T10:49:05;7.72;;;1.10;;
62256;SDS011;48240;52.962;5.790;2023-12-20T10:51:32;5.75;;;1.13;;
62256;SDS011;48240;52.962;5.790;2023-12-20T10:54:00;4.85;;;1.20;;
62256;SDS011;48240;52.962;5.790;2023-12-20T10:56:26;8.18;;;1.58;;
62256;SDS011;48240;52.962;5.790;2023-12-20T10:58:56;9.05;;;1.73;;
62256;SDS011;48240;52.962;5.790;2023-12-20T11:01:24;6.38;;;1.35;;
62256;SDS011;48240;52.962;5.790;2023-12-20T11:03:51;5.35;;;1.30;;
62256;SDS011;48240;52.962;5.790;2023-12-20T11:14:07;5.38;;;1.38;;
62256;SDS011;48240;52.962;5.790;2023-12-20T11:16:37;7.50;;;1.02;;
62256;SDS011;48240;52.962;5.790;2023-12-20T11:19:06;9.20;;;1.40;;
62256;SDS011;48240;52.962;5.790;2023-12-20T11:21:32;10.27;;;1.75;;
62256;SDS011;48240;52.962;5.790;2023-12-20T11:23:59;6.82;;;1.33;;
62256;SDS011;48240;52.962;5.790;2023-12-20T11:26:29;5.80;;;1.00;;
62256;SDS011;48240;52.962;5.790;2023-12-20T11:31:40;6.95;;;1.17;;
62256;SDS011;48240;52.962;5.790;2023-12-20T11:34:13;7.55;;;1.20;;
62256;SDS011;48240;52.962;5.790;2023-12-20T11:36:42;5.03;;;1.10;;
62256;SDS011;48240;52.962;5.790;2023-12-20T11:39:08;6.03;;;1.40;;
62256;SDS011;48240;52.962;5.790;2023-12-20T11:41:36;5.88;;;1.50;;
62256;SDS011;48240;52.962;5.790;2023-12-20T11:44:02;5.18;;;1.10;;
62256;SDS011;48240;52.962;5.790;2023-12-20T11:46:30;7.18;;;1.17;;
62256;SDS011;48240;52.962;5.790;2023-12-20T11:48:59;4.75;;;1.13;;
62256;SDS011;48240;52.962;5.790;2023-12-20T11:51:26;7.20;;;0.90;;
62256;SDS011;48240;52.962;5.790;2023-12-20T11:53:52;11.15;;;1.27;;
62256;SDS011;48240;52.962;5.790;2023-12-20T11:56:18;6.53;;;1.02;;
62256;SDS011;48240;52.962;5.790;2023-12-20T11:58:45;4.50;;;1.00;;
62256;SDS011;48240;52.962;5.790;2023-12-20T12:01:11;6.30;;;1.50;;
62256;SDS011;48240;52.962;5.790;2023-12-20T12:03:37;5.88;;;1.20;;
62256;SDS011;48240;52.962;5.790;2023-12-20T12:06:03;6.03;;;1.40;;
62256;SDS011;48240;52.962;5.790;2023-12-20T12:08:30;5.18;;;1.23;;
62256;SDS011;48240;52.962;5.790;2023-12-20T12:10:56;5.90;;;1.30;;
62256;SDS011;48240;52.962;5.790;2023-12-20T12:13:22;4.90;;;1.08;;
62256;SDS011;48240;52.962;5.790;2023-12-20T12:15:52;6.07;;;1.23;;
62256;SDS011;48240;52.962;5.790;2023-12-20T12:18:18;5.47;;;1.17;;
62256;SDS011;48240;52.962;5.790;2023-12-20T12:20:44;6.68;;;1.05;;
62256;SDS011;48240;52.962;5.790;2023-12-20T12:23:10;6.78;;;1.15;;
62256;SDS011;48240;52.962;5.790;2023-12-20T12:25:37;5.75;;;1.25;;
62256;SDS011;48240;52.962;5.790;2023-12-20T12:28:03;6.32;;;0.85;;
62256;SDS011;48240;52.962;5.790;2023-12-20T12:30:29;4.85;;;1.02;;
62256;SDS011;48240;52.962;5.790;2023-12-20T12:32:55;5.10;;;1.30;;
62256;SDS011;48240;52.962;5.790;2023-12-20T12:35:22;6.85;;;1.30;;
62256;SDS011;48240;52.962;5.790;2023-12-20T12:37:49;4.60;;;1.13;;
62256;SDS011;48240;52.962;5.790;2023-12-20T12:40:16;4.22;;;1.13;;
62256;SDS011;48240;52.962;5.790;2023-12-20T12:42:45;3.13;;;0.90;;
62256;SDS011;48240;52.962;5.790;2023-12-20T12:45:11;7.45;;;1.08;;
62256;SDS011;48240;52.962;5.790;2023-12-20T12:47:37;6.03;;;0.93;;
62256;SDS011;48240;52.962;5.790;2023-12-20T12:50:04;6.47;;;1.10;;
62256;SDS011;48240;52.962;5.790;2023-12-20T12:52:30;6.72;;;1.30;;
62256;SDS011;48240;52.962;5.790;2023-12-20T12:54:56;3.47;;;0.80;;
62256;SDS011;48240;52.962;5.790;2023-12-20T12:57:22;6.20;;;0.93;;
62256;SDS011;48240;52.962;5.790;2023-12-20T12:59:49;5.05;;;1.10;;
62256;SDS011;48240;52.962;5.790;2023-12-20T13:02:15;5.15;;;1.15;;
62256;SDS011;48240;52.962;5.790;2023-12-20T13:04:42;4.75;;;1.10;;
62256;SDS011;48240;52.962;5.790;2023-12-20T13:07:08;4.72;;;0.80;;
62256;SDS011;48240;52.962;5.790;2023-12-20T13:09:38;5.95;;;0.90;;
62256;SDS011;48240;52.962;5.790;2023-12-20T13:12:04;6.45;;;1.02;;
62256;SDS011;48240;52.962;5.790;2023-12-20T13:14:34;4.10;;;0.80;;
62256;SDS011;48240;52.962;5.790;2023-12-20T13:17:02;3.97;;;1.02;;
62256;SDS011;48240;52.962;5.790;2023-12-20T13:19:29;6.32;;;1.08;;
62256;SDS011;48240;52.962;5.790;2023-12-20T13:21:55;5.07;;;0.93;;
62256;SDS011;48240;52.962;5.790;2023-12-20T13:24:23;5.38;;;0.82;;
62256;SDS011;48240;52.962;5.790;2023-12-20T13:26:49;4.35;;;1.02;;
62256;SDS011;48240;52.962;5.790;2023-12-20T13:29:15;3.40;;;0.85;;
62256;SDS011;48240;52.962;5.790;2023-12-20T13:31:41;3.00;;;0.98;;
62256;SDS011;48240;52.962;5.790;2023-12-20T13:34:07;2.88;;;0.85;;
62256;SDS011;48240;52.962;5.790;2023-12-20T13:36:34;3.72;;;0.70;;
62256;SDS011;48240;52.962;5.790;2023-12-20T13:39:01;4.30;;;0.90;;
62256;SDS011;48240;52.962;5.790;2023-12-20T13:41:29;3.55;;;0.90;;
62256;SDS011;48240;52.962;5.790;2023-12-20T13:43:55;3.20;;;0.70;;
62256;SDS011;48240;52.962;5.790;2023-12-20T13:46:21;4.70;;;1.23;;
62256;SDS011;48240;52.962;5.790;2023-12-20T13:48:48;3.00;;;0.70;;
62256;SDS011;48240;52.962;5.790;2023-12-20T13:51:14;2.72;;;0.82;;
62256;SDS011;48240;52.962;5.790;2023-12-20T13:53:40;4.85;;;0.65;;
62256;SDS011;48240;52.962;5.790;2023-12-20T13:56:07;4.00;;;0.88;;
62256;SDS011;48240;52.962;5.790;2023-12-20T13:58:33;2.33;;;0.85;;
62256;SDS011;48240;52.962;5.790;2023-12-20T14:00:59;3.03;;;1.00;;
62256;SDS011;48240;52.962;5.790;2023-12-20T14:03:25;5.80;;;1.00;;
62256;SDS011;48240;52.962;5.790;2023-12-20T14:05:51;4.35;;;0.80;;
62256;SDS011;48240;52.962;5.790;2023-12-20T14:08:17;2.97;;;1.02;;
62256;SDS011;48240;52.962;5.790;2023-12-20T14:10:43;2.80;;;0.93;;
62256;SDS011;48240;52.962;5.790;2023-12-20T14:13:09;3.78;;;0.80;;
62256;SDS011;48240;52.962;5.790;2023-12-20T14:15:35;2.60;;;0.82;;
62256;SDS011;48240;52.962;5.790;2023-12-20T14:18:05;6.47;;;1.67;;
62256;SDS011;48240;52.962;5.790;2023-12-20T14:20:35;2.85;;;0.93;;
62256;SDS011;48240;52.962;5.790;2023-12-20T14:23:01;5.65;;;1.25;;
62256;SDS011;48240;52.962;5.790;2023-12-20T14:25:27;4.15;;;1.00;;
62256;SDS011;48240;52.962;5.790;2023-12-20T14:27:53;7.65;;;1.25;;
62256;SDS011;48240;52.962;5.790;2023-12-20T14:30:20;5.15;;;1.23;;
62256;SDS011;48240;52.962;5.790;2023-12-20T14:32:46;7.03;;;0.93;;
62256;SDS011;48240;52.962;5.790;2023-12-20T14:35:13;6.78;;;1.25;;
62256;SDS011;48240;52.962;5.790;2023-12-20T14:37:39;6.43;;;1.15;;
62256;SDS011;48240;52.962;5.790;2023-12-20T14:40:06;8.15;;;1.05;;
62256;SDS011;48240;52.962;5.790;2023-12-20T14:42:35;3.25;;;1.10;;
62256;SDS011;48240;52.962;5.790;2023-12-20T14:45:02;5.97;;;0.93;;
62256;SDS011;48240;52.962;5.790;2023-12-20T14:47:28;7.43;;;1.50;;
62256;SDS011;48240;52.962;5.790;2023-12-20T14:49:54;7.38;;;1.55;;
62256;SDS011;48240;52.962;5.790;2023-12-20T14:52:20;5.82;;;1.10;;
62256;SDS011;48240;52.962;5.790;2023-12-20T14:54:46;5.88;;;1.30;;
62256;SDS011;48240;52.962;5.790;2023-12-20T14:57:12;8.23;;;1.60;;
62256;SDS011;48240;52.962;5.790;2023-12-20T14:59:38;6.82;;;1.35;;
62256;SDS011;48240;52.962;5.790;2023-12-20T15:02:04;7.35;;;1.40;;
62256;SDS011;48240;52.962;5.790;2023-12-20T15:04:31;7.20;;;1.35;;
62256;SDS011;48240;52.962;5.790;2023-12-20T15:06:57;7.70;;;1.30;;
62256;SDS011;48240;52.962;5.790;2023-12-20T15:09:23;4.88;;;1.10;;
62256;SDS011;48240;52.962;5.790;2023-12-20T15:11:49;4.75;;;1.00;;
62256;SDS011;48240;52.962;5.790;2023-12-20T15:14:16;6.30;;;1.27;;
62256;SDS011;48240;52.962;5.790;2023-12-20T15:16:45;5.43;;;1.23;;
62256;SDS011;48240;52.962;5.790;2023-12-20T15:19:12;7.45;;;1.45;;
62256;SDS011;48240;52.962;5.790;2023-12-20T15:21:38;7.05;;;1.40;;
62256;SDS011;48240;52.962;5.790;2023-12-20T15:24:11;6.68;;;1.20;;
62256;SDS011;48240;52.962;5.790;2023-12-20T15:26:41;5.03;;;1.30;;
62256;SDS011;48240;52.962;5.790;2023-12-20T15:29:08;6.10;;;1.20;;
62256;SDS011;48240;52.962;5.790;2023-12-20T15:31:35;6.88;;;1.10;;
62256;SDS011;48240;52.962;5.790;2023-12-20T15:34:02;6.38;;;1.23;;
62256;SDS011;48240;52.962;5.790;2023-12-20T15:36:28;8.93;;;1.60;;
62256;SDS011;48240;52.962;5.790;2023-12-20T15:38:54;5.80;;;1.23;;
62256;SDS011;48240;52.962;5.790;2023-12-20T15:41:22;7.28;;;1.48;;
62256;SDS011;48240;52.962;5.790;2023-12-20T15:43:49;8.43;;;1.42;;
62256;SDS011;48240;52.962;5.790;2023-12-20T15:46:15;5.50;;;0.98;;
62256;SDS011;48240;52.962;5.790;2023-12-20T15:48:41;5.65;;;1.05;;
62256;SDS011;48240;52.962;5.790;2023-12-20T15:51:10;8.52;;;1.27;;
62256;SDS011;48240;52.962;5.790;2023-12-20T15:53:36;5.40;;;1.30;;
62256;SDS011;48240;52.962;5.790;2023-12-20T15:56:03;4.68;;;1.05;;
62256;SDS011;48240;52.962;5.790;2023-12-20T15:58:29;6.25;;;1.25;;
62256;SDS011;48240;52.962;5.790;2023-12-20T16:00:58;6.47;;;1.45;;
62256;SDS011;48240;52.962;5.790;2023-12-20T16:03:25;5.03;;;1.10;;
62256;SDS011;48240;52.962;5.790;2023-12-20T16:05:52;5.13;;;1.13;;
62256;SDS011;48240;52.962;5.790;2023-12-20T16:08:19;6.97;;;1.40;;
62256;SDS011;48240;52.962;5.790;2023-12-20T16:10:45;8.18;;;1.52;;
62256;SDS011;48240;52.962;5.790;2023-12-20T16:13:11;7.88;;;1.45;;
62256;SDS011;48240;52.962;5.790;2023-12-20T16:15:37;5.60;;;1.52;;
62256;SDS011;48240;52.962;5.790;2023-12-20T16:18:03;7.30;;;1.40;;
62256;SDS011;48240;52.962;5.790;2023-12-20T16:20:34;6.97;;;1.48;;
62256;SDS011;48240;52.962;5.790;2023-12-20T16:23:00;5.57;;;1.27;;
62256;SDS011;48240;52.962;5.790;2023-12-20T16:25:26;4.32;;;1.10;;
62256;SDS011;48240;52.962;5.790;2023-12-20T16:27:52;7.65;;;1.30;;
62256;SDS011;48240;52.962;5.790;2023-12-20T16:30:18;6.78;;;1.58;;
62256;SDS011;48240;52.962;5.790;2023-12-20T16:32:44;5.32;;;1.33;;
62256;SDS011;48240;52.962;5.790;2023-12-20T16:35:10;6.07;;;1.13;;
62256;SDS011;48240;52.962;5.790;2023-12-20T16:37:36;4.57;;;1.00;;
62256;SDS011;48240;52.962;5.790;2023-12-20T16:40:06;6.22;;;1.35;;
62256;SDS011;48240;52.962;5.790;2023-12-20T16:42:32;6.72;;;1.10;;
62256;SDS011;48240;52.962;5.790;2023-12-20T16:44:58;7.60;;;1.40;;
62256;SDS011;48240;52.962;5.790;2023-12-20T16:47:24;7.82;;;1.30;;
62256;SDS011;48240;52.962;5.790;2023-12-20T16:49:51;6.90;;;1.33;;
62256;SDS011;48240;52.962;5.790;2023-12-20T16:52:17;4.57;;;1.25;;
62256;SDS011;48240;52.962;5.790;2023-12-20T16:54:43;6.75;;;1.38;;
62256;SDS011;48240;52.962;5.790;2023-12-20T16:57:09;6.55;;;1.13;;
62256;SDS011;48240;52.962;5.790;2023-12-20T16:59:35;7.32;;;1.40;;
62256;SDS011;48240;52.962;5.790;2023-12-20T17:02:01;7.78;;;1.20;;
62256;SDS011;48240;52.962;5.790;2023-12-20T17:04:29;4.28;;;1.08;;
62256;SDS011;48240;52.962;5.790;2023-12-20T17:06:57;6.82;;;1.40;;
62256;SDS011;48240;52.962;5.790;2023-12-20T17:09:23;5.32;;;1.10;;
62256;SDS011;48240;52.962;5.790;2023-12-20T17:11:51;5.63;;;1.65;;
62256;SDS011;48240;52.962;5.790;2023-12-20T17:14:17;4.82;;;1.17;;
62256;SDS011;48240;52.962;5.790;2023-12-20T17:16:43;6.97;;;1.17;;
62256;SDS011;48240;52.962;5.790;2023-12-20T17:19:09;4.45;;;1.20;;
62256;SDS011;48240;52.962;5.790;2023-12-20T17:21:35;5.75;;;1.20;;
62256;SDS011;48240;52.962;5.790;2023-12-20T17:24:02;5.00;;;1.10;;
62256;SDS011;48240;52.962;5.790;2023-12-20T17:26:28;5.50;;;1.30;;
62256;SDS011;48240;52.962;5.790;2023-12-20T17:28:54;6.22;;;1.05;;
62256;SDS011;48240;52.962;5.790;2023-12-20T17:31:20;4.00;;;1.30;;
62256;SDS011;48240;52.962;5.790;2023-12-20T17:33:46;5.35;;;1.20;;
62256;SDS011;48240;52.962;5.790;2023-12-20T17:36:13;4.55;;;1.50;;
62256;SDS011;48240;52.962;5.790;2023-12-20T17:38:41;5.53;;;1.40;;
62256;SDS011;48240;52.962;5.790;2023-12-20T17:41:07;4.15;;;1.50;;
62256;SDS011;48240;52.962;5.790;2023-12-20T17:43:34;4.00;;;0.90;;
62256;SDS011;48240;52.962;5.790;2023-12-20T17:46:00;3.53;;;0.93;;
62256;SDS011;48240;52.962;5.790;2023-12-20T17:48:26;6.32;;;1.08;;
62256;SDS011;48240;52.962;5.790;2023-12-20T17:50:52;5.45;;;1.10;;
62256;SDS011;48240;52.962;5.790;2023-12-20T17:53:18;4.30;;;1.13;;
62256;SDS011;48240;52.962;5.790;2023-12-20T17:55:44;5.20;;;1.40;;
62256;SDS011;48240;52.962;5.790;2023-12-20T17:58:10;3.72;;;1.00;;
62256;SDS011;48240;52.962;5.790;2023-12-20T18:00:36;7.82;;;1.23;;
62256;SDS011;48240;52.962;5.790;2023-12-20T18:03:02;3.75;;;0.90;;
62256;SDS011;48240;52.962;5.790;2023-12-20T18:05:29;4.50;;;1.25;;
62256;SDS011;48240;52.962;5.790;2023-12-20T18:07:55;3.85;;;1.10;;
62256;SDS011;48240;52.962;5.790;2023-12-20T18:10:21;3.85;;;1.05;;
62256;SDS011;48240;52.962;5.790;2023-12-20T18:12:47;4.28;;;1.30;;
62256;SDS011;48240;52.962;5.790;2023-12-20T18:15:14;5.13;;;1.63;;
62256;SDS011;48240;52.962;5.790;2023-12-20T18:17:40;4.68;;;1.10;;
62256;SDS011;48240;52.962;5.790;2023-12-20T18:20:06;6.93;;;1.30;;
62256;SDS011;48240;52.962;5.790;2023-12-20T18:22:33;8.63;;;1.60;;
62256;SDS011;48240;52.962;5.790;2023-12-20T18:24:59;5.25;;;1.20;;
62256;SDS011;48240;52.962;5.790;2023-12-20T18:27:25;6.22;;;1.20;;
62256;SDS011;48240;52.962;5.790;2023-12-20T18:29:51;4.15;;;1.10;;
62256;SDS011;48240;52.962;5.790;2023-12-20T18:32:17;4.13;;;1.10;;
62256;SDS011;48240;52.962;5.790;2023-12-20T18:34:43;5.90;;;1.17;;
62256;SDS011;48240;52.962;5.790;2023-12-20T18:37:10;4.07;;;0.80;;
62256;SDS011;48240;52.962;5.790;2023-12-20T18:39:39;4.55;;;1.10;;
62256;SDS011;48240;52.962;5.790;2023-12-20T18:42:05;4.30;;;1.23;;
62256;SDS011;48240;52.962;5.790;2023-12-20T18:44:33;3.92;;;1.20;;
62256;SDS011;48240;52.962;5.790;2023-12-20T18:46:59;4.43;;;0.93;;
62256;SDS011;48240;52.962;5.790;2023-12-20T18:49:25;7.65;;;1.08;;
62256;SDS011;48240;52.962;5.790;2023-12-20T18:51:51;4.95;;;1.20;;
62256;SDS011;48240;52.962;5.790;2023-12-20T18:54:17;6.03;;;0.73;;
62256;SDS011;48240;52.962;5.790;2023-12-20T18:56:45;6.32;;;1.42;;
62256;SDS011;48240;52.962;5.790;2023-12-20T18:59:13;3.15;;;0.90;;
62256;SDS011;48240;52.962;5.790;2023-12-20T19:01:42;8.43;;;1.20;;
62256;SDS011;48240;52.962;5.790;2023-12-20T19:04:08;6.55;;;1.23;;
62256;SDS011;48240;52.962;5.790;2023-12-20T19:06:34;6.55;;;1.30;;
62256;SDS011;48240;52.962;5.790;2023-12-20T19:09:00;5.25;;;1.23;;
62256;SDS011;48240;52.962;5.790;2023-12-20T19:11:26;3.30;;;1.10;;
62256;SDS011;48240;52.962;5.790;2023-12-20T19:13:52;4.40;;;1.50;;
62256;SDS011;48240;52.962;5.790;2023-12-20T19:16:18;6.13;;;1.50;;
62256;SDS011;48240;52.962;5.790;2023-12-20T19:18:44;5.95;;;1.60;;
62256;SDS011;48240;52.962;5.790;2023-12-20T19:21:13;4.90;;;1.50;;
62256;SDS011;48240;52.962;5.790;2023-12-20T19:23:39;5.32;;;1.52;;
62256;SDS011;48240;52.962;5.790;2023-12-20T19:26:11;6.10;;;1.50;;
62256;SDS011;48240;52.962;5.790;2023-12-20T19:28:40;4.00;;;1.10;;
62256;SDS011;48240;52.962;5.790;2023-12-20T19:31:08;3.95;;;1.17;;
62256;SDS011;48240;52.962;5.790;2023-12-20T19:33:39;6.72;;;1.52;;
62256;SDS011;48240;52.962;5.790;2023-12-20T19:36:05;4.20;;;1.20;;
62256;SDS011;48240;52.962;5.790;2023-12-20T19:38:33;4.70;;;1.35;;